• Join FlightAware (Why Join?)
  • Login
  • US Flag 
08:45PM EST


 

Airport Tracker/Info


-or-


 

Live Flight TrackerFlight Track Log ✈ AMF1019 ✈ 12-Nov-2013 ✈ KRIC - KCVG

Flight Track Log - Related Links

Times and Time Zones

All times are in EST time to prevent confusion due to time zone crossing. See the AMF1019 flight status page for this flight to view local times or setup timezone preferences in your user account.

Time Position Orientation Groundspeed Altitude Reporting Facility
EST Latitude Longitude Course Direction KTS MPH feet Rate Location/Type
09:38PM 37.5386 -77.3703 254° West 142 163 3,100  Level Washington Center
09:39PM 37.5064 -77.4244 233° Southwest 142 163 4,600 1,560 Climbing Washington Center
09:40PM 37.4703 -77.4783 230° Southwest 171 197 6,200 1,500 Climbing Washington Center
09:41PM 37.4483 -77.5433 247° West 194 223 7,700 1,440 Climbing Washington Center
09:42PM 37.4408 -77.6136 262° West 200 230 9,200 1,620 Climbing Washington Center
09:43PM 37.5802 -77.6263 254° West  Level Estimated
09:43PM 37.4294 -77.6761 257° West 200 230 11,000  Level Washington Center
09:44PM 37.4136 -77.7386 252° West 200 230 12,300 1,620 Climbing Washington Center
09:45PM 37.3958 -77.8061 252° West 195 224 14,300 1,680 Climbing Washington Center
09:46PM 37.3822 -77.8658 254° West 189 217 15,700 1,440 Climbing Washington Center
09:47PM 37.3706 -77.9178 254° West 177 204 17,200 1,140 Climbing Washington Center
09:48PM 37.3611 -77.9750 258° West 172 198 18,100 960 Climbing Washington Center
09:49PM 37.3517 -78.0319 258° West 167 192 19,200 840 Climbing Washington Center
09:50PM 37.3381 -78.0839 252° West 161 185 19,800 360 Climbing Washington Center
09:51PM 37.3222 -78.1461 252° West 173 199 20,000 60 Climbing Washington Center
09:52PM 37.3083 -78.2133 255° West 184 212 20,000  Level Washington Center
09:53PM 37.2922 -78.2781 253° West 189 217 20,000  Level Washington Center
09:54PM 37.3033 -78.3386 283° West 183 211 20,000  Level Washington Center
09:55PM 37.3458 -78.3897 316° Northwest 213 245 20,000  Level Washington Center
09:56PM 37.3800 -78.4511 305° West 213 245 20,000  Level Washington Center
09:57PM 37.4097 -78.5175 299° West 218 251 20,000  Level Washington Center
09:58PM 37.4394 -78.5817 300° West 218 251 20,000  Level Washington Center
09:59PM 37.4686 -78.6611 295° West 218 251 20,000  Level Washington Center
10:00PM 37.4961 -78.7278 297° West 223 257 20,000  Level Washington Center
10:01PM 37.5214 -78.7994 294° West 223 257 20,000  Level Washington Center
10:02PM 37.5444 -78.8686 293° West 223 257 20,000  Level Washington Center
10:03PM 37.5633 -78.9428 288° West 223 257 20,000  Level Washington Center
10:04PM 37.5803 -79.0117 287° West 223 257 20,000  Level Washington Center
10:05PM 37.6031 -79.0833 292° West 223 257 20,000  Level Washington Center
10:06PM 37.6258 -79.1578 291° West 229 264 20,000  Level Washington Center
10:07PM 37.6447 -79.2297 288° West 229 264 20,000  Level Washington Center
10:08PM 37.6672 -79.3094 290° West 229 264 20,000  Level Washington Center
10:09PM 37.6861 -79.3733 291° West 229 264 20,000  Level Washington Center
10:10PM 37.7128 -79.4561 292° West 229 264 20,000  Level Washington Center
10:11PM 37.7375 -79.5283 293° West 235 270 20,000  Level Washington Center
10:12PM 37.7600 -79.6003 292° West 230 265 20,000  Level Washington Center
10:13PM 37.7783 -79.6750 287° West 230 265 20,000  Level Washington Center
10:14PM 37.7989 -79.7494 289° West 230 265 20,000  Level Washington Center
10:15PM 37.8189 -79.8294 288° West 230 265 20,000  Level Washington Center
10:16PM 37.8392 -79.9044 289° West 230 265 20,000  Level Washington Center
10:17PM 37.8594 -79.9764 290° West 230 265 20,000  Level Washington Center
10:18PM 37.8797 -80.0539 288° West 230 265 20,000  Level Washington Center
10:19PM 37.8981 -80.1183 290° West 230 265 20,000  Level Washington Center
10:21PM 37.9517 -80.2867 292° West 225 259 20,000  Level Indianapolis Center
10:22PM 37.9739 -80.3589 291° West 224 258 20,000  Level Indianapolis Center
10:23PM 37.9922 -80.4314 288° West 221 254 20,000  Level Indianapolis Center
10:25PM 38.0133 -80.5103 289° West 228 262 20,000  Level Indianapolis Center
10:26PM 38.0336 -80.5858 289° West 226 260 20,000  Level Indianapolis Center
10:27PM 38.0531 -80.6622 288° West 227 261 20,000  Level Indianapolis Center
10:28PM 38.0728 -80.7403 288° West 231 266 20,000  Level Indianapolis Center
10:29PM 38.0925 -80.8156 288° West 227 261 20,000  Level Indianapolis Center
10:30PM 38.1108 -80.8936 287° West 229 264 20,000  Level Indianapolis Center
10:31PM 38.1297 -80.9708 287° West 231 266 20,000  Level Indianapolis Center
10:32PM 38.1464 -81.0461 286° West 222 255 20,000  Level Indianapolis Center
10:33PM 38.1642 -81.1236 286° West 224 258 20,000  Level Indianapolis Center
10:34PM 38.1814 -81.1986 286° West 220 253 20,000  Level Indianapolis Center
10:35PM 38.1961 -81.2750 284° West 222 255 20,000  Level Indianapolis Center
10:36PM 38.2133 -81.3503 286° West 220 253 20,000  Level Indianapolis Center
10:37PM 38.2297 -81.4272 285° West 224 258 20,000  Level Indianapolis Center
10:38PM 38.2458 -81.5042 285° West 224 258 20,000  Level Indianapolis Center
10:39PM 38.2631 -81.5817 286° West 226 260 20,000  Level Indianapolis Center
10:40PM 38.2772 -81.6597 283° West 225 259 20,000  Level Indianapolis Center
10:41PM 38.2953 -81.7542 284° West 227 261 20,000  Level Indianapolis Center
10:42PM 38.3106 -81.8342 284° West 231 266 20,000  Level Indianapolis Center
10:43PM 38.3342 -81.9075 292° West 223 257 20,000  Level Indianapolis Center
10:44PM 38.3558 -81.9842 290° West 228 262 20,000  Level Indianapolis Center
10:45PM 38.3756 -82.0603 288° West 227 261 20,000  Level Indianapolis Center
10:46PM 38.3939 -82.1386 287° West 229 264 20,000  Level Indianapolis Center
10:47PM 38.4125 -82.2150 287° West 225 259 20,000  Level Indianapolis Center
10:48PM 38.4314 -82.2897 288° West 222 255 20,000  Level Indianapolis Center
10:49PM 38.4489 -82.3647 287° West 219 252 20,000  Level Indianapolis Center
10:50PM 38.4692 -82.4397 289° West 221 254 20,000  Level Indianapolis Center
10:51PM 38.4867 -82.5164 286° West 220 253 20,000  Level Indianapolis Center
10:52PM 38.5047 -82.5908 287° West 221 254 20,000  Level Indianapolis Center
10:53PM 38.5211 -82.6667 285° West 223 257 20,000  Level Indianapolis Center
10:54PM 38.5372 -82.7436 285° West 224 258 20,000  Level Indianapolis Center
10:55PM 38.5544 -82.8217 286° West 226 260 20,000  Level Indianapolis Center
10:56PM 38.5772 -82.9092 288° West 224 258 20,000  Level Indianapolis Center
10:57PM 38.5967 -82.9869 288° West 227 261 20,000 -360 Level Indianapolis Center
10:58PM 38.6186 -83.0642 290° West 230 265 19,300 -900 Descending Indianapolis Center
10:59PM 38.6453 -83.1439 293° West 241 277 18,200 -720 Descending Indianapolis Center
11:00PM 38.6631 -83.2164 287° West 242 278 17,900 -720 Descending Indianapolis Center
11:01PM 38.6856 -83.2978 290° West 243 280 16,800 -1,080 Descending Indianapolis Center
11:02PM 38.7092 -83.3778 291° West 241 277 15,800 -1,020 Descending Indianapolis Center
11:03PM 38.7308 -83.4600 289° West 242 278 14,800 -1,140 Descending Indianapolis Center
11:04PM 38.7539 -83.5597 287° West 243 280 13,600 -1,080 Descending Indianapolis Center
11:05PM 38.7697 -83.6433 284° West 242 278 12,700 -960 Descending Indianapolis Center
11:06PM 38.7867 -83.7264 285° West 242 278 11,700 -840 Descending Indianapolis Center
11:07PM 38.8044 -83.8114 285° West 246 283 11,100 -360 Descending Indianapolis Center
11:08PM 38.8233 -83.8864 288° West 225 259 11,000 -60 Descending Indianapolis Center
11:09PM 38.8431 -83.9594 289° West 217 250 11,000  Level Indianapolis Center
11:10PM 38.8581 -84.0353 284° West 221 254 11,000 -60 Level Indianapolis Center
11:11PM 38.8644 -84.1119 276° West 217 250 10,900 -780 Descending Indianapolis Center
11:12PM 38.8742 -84.1917 279° West 225 259 9,500 -1,260 Descending Indianapolis Center
11:13PM 38.8867 -84.2722 281° West 229 264 8,400 -1,200 Descending Indianapolis Center
11:14PM 38.9017 -84.3494 284° West 227 261 7,100 -1,500 Descending Indianapolis Center
11:15PM 38.9181 -84.4211 286° West 215 247 5,400 -1,380 Descending Indianapolis Center
11:16PM 38.9381 -84.5028 287° West 213 245 4,400 -1,020 Descending Indianapolis Center
11:19PM 38.9667 -84.6500 284° West 146 168 1,900 -840 Descending Cincinnati TRACON
11:20PM 39.0000 -84.6667 339° North 121 139 1,600 -420 Descending Cincinnati TRACON
11:21PM 39.0333 -84.6667 360° North 116 133 1,100 -540 Descending Cincinnati TRACON
11:23PM 39.0488 -84.6678 38° Northeast  Level Estimated